sensor_id;sensor_type;location;lat;lon;timestamp;pressure;altitude;pressure_sealevel;temperature;humidity
43741;BME280;29352;48.708;9.290;2023-04-27T00:02:25;97929.06;;;-0.69;85.47
43741;BME280;29352;48.708;9.290;2023-04-27T00:04:50;97929.06;;;-0.69;85.65
43741;BME280;29352;48.708;9.290;2023-04-27T00:07:16;97935.13;;;-0.69;86.12
43741;BME280;29352;48.708;9.290;2023-04-27T00:09:41;97927.88;;;-0.75;86.73
43741;BME280;29352;48.708;9.290;2023-04-27T00:12:07;97930.31;;;-0.64;85.99
43741;BME280;29352;48.708;9.290;2023-04-27T00:14:32;97931.28;;;-0.65;85.16
43741;BME280;29352;48.708;9.290;2023-04-27T00:16:57;97933.09;;;-0.75;85.22
43741;BME280;29352;48.708;9.290;2023-04-27T00:19:23;97922.75;;;-1.33;85.44
43741;BME280;29352;48.708;9.290;2023-04-27T00:21:48;97927.28;;;-1.16;84.47
43741;BME280;29352;48.708;9.290;2023-04-27T00:24:14;97923.41;;;-1.12;84.52
43741;BME280;29352;48.708;9.290;2023-04-27T00:26:39;97916.38;;;-1.21;84.65
43741;BME280;29352;48.708;9.290;2023-04-27T00:29:05;97916.63;;;-0.95;84.07
43741;BME280;29352;48.708;9.290;2023-04-27T00:31:31;97917.84;;;-0.62;83.04
43741;BME280;29352;48.708;9.290;2023-04-27T00:33:56;97925.56;;;-0.88;84.16
43741;BME280;29352;48.708;9.290;2023-04-27T00:36:21;97914.28;;;-1.08;86.11
43741;BME280;29352;48.708;9.290;2023-04-27T00:38:47;97913.19;;;-1.05;85.58
43741;BME280;29352;48.708;9.290;2023-04-27T00:41:12;97917.16;;;-0.91;85.41
43741;BME280;29352;48.708;9.290;2023-04-27T00:43:45;97917.59;;;-1.06;85.36
43741;BME280;29352;48.708;9.290;2023-04-27T00:46:12;97907.16;;;-1.25;84.62
43741;BME280;29352;48.708;9.290;2023-04-27T00:48:39;97910.59;;;-1.34;85.13
43741;BME280;29352;48.708;9.290;2023-04-27T00:51:05;97910.47;;;-1.23;84.56
43741;BME280;29352;48.708;9.290;2023-04-27T00:53:31;97904.63;;;-0.98;83.78
43741;BME280;29352;48.708;9.290;2023-04-27T00:55:58;97903.28;;;-1.11;84.73
43741;BME280;29352;48.708;9.290;2023-04-27T00:58:23;97897.28;;;-1.51;86.03
43741;BME280;29352;48.708;9.290;2023-04-27T01:00:50;97917.91;;;-1.28;84.17
43741;BME280;29352;48.708;9.290;2023-04-27T01:03:16;97899.97;;;-1.13;81.93
43741;BME280;29352;48.708;9.290;2023-04-27T01:05:42;97905.34;;;-0.68;79.45
43741;BME280;29352;48.708;9.290;2023-04-27T01:08:08;97905.19;;;-1.04;80.08
43741;BME280;29352;48.708;9.290;2023-04-27T01:10:35;97897.16;;;-0.37;78.52
43741;BME280;29352;48.708;9.290;2023-04-27T01:13:01;97906.69;;;-1.01;80.73
43741;BME280;29352;48.708;9.290;2023-04-27T01:15:27;97901.13;;;-0.79;79.59
43741;BME280;29352;48.708;9.290;2023-04-27T01:18:01;97906.25;;;-0.97;82.66
43741;BME280;29352;48.708;9.290;2023-04-27T01:20:27;97908.22;;;-1.08;84.38
43741;BME280;29352;48.708;9.290;2023-04-27T01:22:55;97901.38;;;-1.19;84.94
43741;BME280;29352;48.708;9.290;2023-04-27T01:25:21;97905.53;;;-1.26;85.04
43741;BME280;29352;48.708;9.290;2023-04-27T01:27:47;97902.44;;;-1.02;83.47
43741;BME280;29352;48.708;9.290;2023-04-27T01:30:12;97917.00;;;-1.00;84.17
43741;BME280;29352;48.708;9.290;2023-04-27T01:32:38;97906.13;;;-0.95;83.68
43741;BME280;29352;48.708;9.290;2023-04-27T01:35:04;97908.94;;;-1.06;84.29
43741;BME280;29352;48.708;9.290;2023-04-27T01:37:31;97904.63;;;-1.07;84.02
43741;BME280;29352;48.708;9.290;2023-04-27T01:39:56;97911.56;;;-1.06;85.31
43741;BME280;29352;48.708;9.290;2023-04-27T01:42:22;97917.00;;;-1.00;85.05
43741;BME280;29352;48.708;9.290;2023-04-27T01:44:48;97921.22;;;-1.16;85.58
43741;BME280;29352;48.708;9.290;2023-04-27T01:47:17;97910.75;;;-1.36;86.71
43741;BME280;29352;48.708;9.290;2023-04-27T01:49:42;97910.91;;;-1.37;85.67
43741;BME280;29352;48.708;9.290;2023-04-27T01:52:11;97906.13;;;-1.61;85.82
43741;BME280;29352;48.708;9.290;2023-04-27T01:54:36;97911.75;;;-1.47;84.58
43741;BME280;29352;48.708;9.290;2023-04-27T01:57:01;97907.44;;;-1.38;84.18
43741;BME280;29352;48.708;9.290;2023-04-27T01:59:27;97903.56;;;-1.24;84.31
43741;BME280;29352;48.708;9.290;2023-04-27T02:01:53;97913.91;;;-1.13;83.02
43741;BME280;29352;48.708;9.290;2023-04-27T02:04:19;97921.78;;;-1.23;83.95
43741;BME280;29352;48.708;9.290;2023-04-27T02:06:45;97917.75;;;-1.17;82.98
43741;BME280;29352;48.708;9.290;2023-04-27T02:09:11;97910.69;;;-1.07;82.89
43741;BME280;29352;48.708;9.290;2023-04-27T02:11:37;97911.09;;;-0.92;82.62
43741;BME280;29352;48.708;9.290;2023-04-27T02:14:02;97912.75;;;-1.01;82.07
43741;BME280;29352;48.708;9.290;2023-04-27T02:16:28;97921.47;;;-1.10;82.88
43741;BME280;29352;48.708;9.290;2023-04-27T02:18:53;97917.44;;;-0.95;83.90
43741;BME280;29352;48.708;9.290;2023-04-27T02:21:19;97925.81;;;-0.81;84.06
43741;BME280;29352;48.708;9.290;2023-04-27T02:23:45;97931.38;;;-1.13;83.79
43741;BME280;29352;48.708;9.290;2023-04-27T02:26:18;97930.19;;;-1.19;84.65
43741;BME280;29352;48.708;9.290;2023-04-27T02:28:45;97936.41;;;-1.39;84.61
43741;BME280;29352;48.708;9.290;2023-04-27T02:31:12;97931.00;;;-1.19;84.04
43741;BME280;29352;48.708;9.290;2023-04-27T02:33:39;97927.81;;;-1.12;83.46
43741;BME280;29352;48.708;9.290;2023-04-27T02:36:06;97927.03;;;-1.32;84.97
43741;BME280;29352;48.708;9.290;2023-04-27T02:38:32;97939.38;;;-0.96;84.08
43741;BME280;29352;48.708;9.290;2023-04-27T02:40:58;97939.03;;;-1.39;86.05
43741;BME280;29352;48.708;9.290;2023-04-27T02:43:23;97952.09;;;-1.39;86.04
43741;BME280;29352;48.708;9.290;2023-04-27T02:45:49;97941.34;;;-1.27;85.50
43741;BME280;29352;48.708;9.290;2023-04-27T02:48:15;97940.53;;;-1.27;85.24
43741;BME280;29352;48.708;9.290;2023-04-27T02:50:44;97940.38;;;-1.26;84.84
43741;BME280;29352;48.708;9.290;2023-04-27T02:53:10;97939.69;;;-1.28;85.63
43741;BME280;29352;48.708;9.290;2023-04-27T02:55:37;97942.59;;;-1.60;87.86
43741;BME280;29352;48.708;9.290;2023-04-27T02:58:03;97954.88;;;-1.41;87.31
43741;BME280;29352;48.708;9.290;2023-04-27T03:00:29;97944.81;;;-1.36;87.84
43741;BME280;29352;48.708;9.290;2023-04-27T03:02:54;97943.84;;;-1.35;87.33
43741;BME280;29352;48.708;9.290;2023-04-27T03:05:21;97942.19;;;-1.26;86.66
43741;BME280;29352;48.708;9.290;2023-04-27T03:07:47;97943.28;;;-1.19;85.84
43741;BME280;29352;48.708;9.290;2023-04-27T03:10:12;97939.47;;;-0.87;83.69
43741;BME280;29352;48.708;9.290;2023-04-27T03:12:37;97940.72;;;-0.91;83.71
43741;BME280;29352;48.708;9.290;2023-04-27T03:15:03;97943.81;;;-1.15;85.16
43741;BME280;29352;48.708;9.290;2023-04-27T03:17:29;97944.66;;;-1.25;85.32
43741;BME280;29352;48.708;9.290;2023-04-27T03:19:54;97948.34;;;-1.18;84.55
43741;BME280;29352;48.708;9.290;2023-04-27T03:22:20;97942.03;;;-1.34;85.36
43741;BME280;29352;48.708;9.290;2023-04-27T03:24:45;97945.06;;;-1.10;85.56
43741;BME280;29352;48.708;9.290;2023-04-27T03:27:11;97939.41;;;-1.25;86.27
43741;BME280;29352;48.708;9.290;2023-04-27T03:29:36;97943.44;;;-1.30;86.88
43741;BME280;29352;48.708;9.290;2023-04-27T03:32:03;97952.25;;;-1.41;87.05
43741;BME280;29352;48.708;9.290;2023-04-27T03:34:29;97952.81;;;-1.37;86.03
43741;BME280;29352;48.708;9.290;2023-04-27T03:36:55;97955.00;;;-1.52;86.16
43741;BME280;29352;48.708;9.290;2023-04-27T03:39:21;97948.81;;;-1.51;86.91
43741;BME280;29352;48.708;9.290;2023-04-27T03:41:47;97947.97;;;-1.52;86.56
43741;BME280;29352;48.708;9.290;2023-04-27T03:44:12;97943.72;;;-1.53;87.16
43741;BME280;29352;48.708;9.290;2023-04-27T03:46:37;97943.28;;;-1.68;87.86
43741;BME280;29352;48.708;9.290;2023-04-27T03:49:03;97949.06;;;-1.64;86.91
43741;BME280;29352;48.708;9.290;2023-04-27T03:51:29;97952.38;;;-1.43;86.52
43741;BME280;29352;48.708;9.290;2023-04-27T03:53:56;97943.19;;;-0.90;84.76
43741;BME280;29352;48.708;9.290;2023-04-27T03:56:22;97953.31;;;-1.14;85.70
43741;BME280;29352;48.708;9.290;2023-04-27T03:58:47;97953.69;;;-0.90;85.05
43741;BME280;29352;48.708;9.290;2023-04-27T04:01:12;97950.38;;;-0.55;83.96
43741;BME280;29352;48.708;9.290;2023-04-27T04:03:39;97954.69;;;-0.54;83.78
43741;BME280;29352;48.708;9.290;2023-04-27T04:06:04;97953.41;;;-0.50;84.02
43741;BME280;29352;48.708;9.290;2023-04-27T04:08:30;97950.78;;;0.06;81.53
43741;BME280;29352;48.708;9.290;2023-04-27T04:10:58;97958.72;;;-1.16;85.30
43741;BME280;29352;48.708;9.290;2023-04-27T04:13:24;97959.81;;;-1.28;86.65
43741;BME280;29352;48.708;9.290;2023-04-27T04:15:49;97959.22;;;-1.80;88.87
43741;BME280;29352;48.708;9.290;2023-04-27T04:18:14;97962.44;;;-1.57;88.96
43741;BME280;29352;48.708;9.290;2023-04-27T04:20:40;97962.72;;;-1.51;89.47
43741;BME280;29352;48.708;9.290;2023-04-27T04:23:05;97960.78;;;-1.49;88.52
43741;BME280;29352;48.708;9.290;2023-04-27T04:25:31;97952.50;;;-1.25;87.26
43741;BME280;29352;48.708;9.290;2023-04-27T04:27:56;97951.56;;;-0.77;84.89
43741;BME280;29352;48.708;9.290;2023-04-27T04:30:22;97965.75;;;-1.46;87.01
43741;BME280;29352;48.708;9.290;2023-04-27T04:32:47;97971.25;;;-1.49;87.80
43741;BME280;29352;48.708;9.290;2023-04-27T04:35:13;97970.44;;;-1.49;87.08
43741;BME280;29352;48.708;9.290;2023-04-27T04:37:41;97971.69;;;-1.44;88.05
43741;BME280;29352;48.708;9.290;2023-04-27T04:40:08;97971.22;;;-1.78;89.98
43741;BME280;29352;48.708;9.290;2023-04-27T04:42:35;97974.38;;;-1.74;89.99
43741;BME280;29352;48.708;9.290;2023-04-27T04:45:02;97973.75;;;-1.37;88.62
43741;BME280;29352;48.708;9.290;2023-04-27T04:47:28;97976.78;;;-1.32;87.65
43741;BME280;29352;48.708;9.290;2023-04-27T04:49:55;97978.53;;;-0.47;84.26
43741;BME280;29352;48.708;9.290;2023-04-27T04:52:21;97984.34;;;-1.49;88.09
43741;BME280;29352;48.708;9.290;2023-04-27T04:54:50;97985.06;;;-1.27;87.91
43741;BME280;29352;48.708;9.290;2023-04-27T04:57:17;97972.88;;;-0.99;86.54
43741;BME280;29352;48.708;9.290;2023-04-27T04:59:42;97969.00;;;-0.95;86.35
43741;BME280;29352;48.708;9.290;2023-04-27T05:02:07;97968.59;;;-0.43;84.20
43741;BME280;29352;48.708;9.290;2023-04-27T05:04:33;97974.41;;;-0.22;83.10
43741;BME280;29352;48.708;9.290;2023-04-27T05:06:58;97971.13;;;-0.06;82.60
43741;BME280;29352;48.708;9.290;2023-04-27T05:09:24;97974.84;;;-0.54;83.31
43741;BME280;29352;48.708;9.290;2023-04-27T05:11:50;97974.00;;;-1.02;86.30
43741;BME280;29352;48.708;9.290;2023-04-27T05:14:15;97981.94;;;-0.84;86.37
43741;BME280;29352;48.708;9.290;2023-04-27T05:16:41;97985.31;;;-1.21;87.94
43741;BME280;29352;48.708;9.290;2023-04-27T05:19:07;97977.88;;;-0.68;85.35
43741;BME280;29352;48.708;9.290;2023-04-27T05:21:32;97978.19;;;-0.72;87.76
43741;BME280;29352;48.708;9.290;2023-04-27T05:23:58;97985.84;;;-1.17;88.53
43741;BME280;29352;48.708;9.290;2023-04-27T05:26:24;97977.44;;;-1.01;88.12
43741;BME280;29352;48.708;9.290;2023-04-27T05:28:49;97981.41;;;-0.97;88.09
43741;BME280;29352;48.708;9.290;2023-04-27T05:31:15;97983.84;;;-0.66;87.04
43741;BME280;29352;48.708;9.290;2023-04-27T05:33:41;97984.03;;;-0.40;86.05
43741;BME280;29352;48.708;9.290;2023-04-27T05:36:06;97976.81;;;-0.76;86.64
43741;BME280;29352;48.708;9.290;2023-04-27T05:38:32;97993.06;;;-0.62;86.79
43741;BME280;29352;48.708;9.290;2023-04-27T05:41:00;97986.44;;;-0.66;87.27
43741;BME280;29352;48.708;9.290;2023-04-27T05:43:25;97988.63;;;0.03;85.83
43741;BME280;29352;48.708;9.290;2023-04-27T05:45:51;97990.88;;;-0.02;85.78
43741;BME280;29352;48.708;9.290;2023-04-27T05:48:17;97998.06;;;-0.32;82.87
43741;BME280;29352;48.708;9.290;2023-04-27T05:50:43;97995.75;;;-0.91;85.70
43741;BME280;29352;48.708;9.290;2023-04-27T05:53:09;97992.44;;;-0.37;83.53
43741;BME280;29352;48.708;9.290;2023-04-27T05:55:35;97988.63;;;0.66;80.72
43741;BME280;29352;48.708;9.290;2023-04-27T05:58:02;97991.41;;;0.83;79.96
43741;BME280;29352;48.708;9.290;2023-04-27T06:00:28;97998.63;;;0.81;80.21
43741;BME280;29352;48.708;9.290;2023-04-27T06:02:53;97995.28;;;1.40;78.17
43741;BME280;29352;48.708;9.290;2023-04-27T06:05:19;98001.13;;;1.86;75.49
43741;BME280;29352;48.708;9.290;2023-04-27T06:07:45;98002.72;;;1.53;76.04
43741;BME280;29352;48.708;9.290;2023-04-27T06:10:11;98003.25;;;1.57;75.60
43741;BME280;29352;48.708;9.290;2023-04-27T06:12:37;98007.97;;;2.05;73.94
43741;BME280;29352;48.708;9.290;2023-04-27T06:15:04;98011.41;;;2.06;73.92
43741;BME280;29352;48.708;9.290;2023-04-27T06:17:37;98006.81;;;2.08;72.63
43741;BME280;29352;48.708;9.290;2023-04-27T06:20:04;98011.63;;;2.29;74.18
43741;BME280;29352;48.708;9.290;2023-04-27T06:22:33;98010.44;;;1.47;74.96
43741;BME280;29352;48.708;9.290;2023-04-27T06:25:03;98009.38;;;1.92;74.84
43741;BME280;29352;48.708;9.290;2023-04-27T06:27:30;98009.56;;;2.81;71.08
43741;BME280;29352;48.708;9.290;2023-04-27T06:29:57;98013.06;;;2.82;70.94
43741;BME280;29352;48.708;9.290;2023-04-27T06:32:23;98023.41;;;2.51;71.73
43741;BME280;29352;48.708;9.290;2023-04-27T06:34:48;98023.16;;;2.20;72.57
43741;BME280;29352;48.708;9.290;2023-04-27T06:37:14;98017.38;;;2.16;72.09
43741;BME280;29352;48.708;9.290;2023-04-27T06:39:43;98020.81;;;3.16;69.92
43741;BME280;29352;48.708;9.290;2023-04-27T06:42:09;98030.16;;;2.70;70.64
43741;BME280;29352;48.708;9.290;2023-04-27T06:44:34;98020.97;;;3.47;68.03
43741;BME280;29352;48.708;9.290;2023-04-27T06:47:00;98017.00;;;3.43;69.04
43741;BME280;29352;48.708;9.290;2023-04-27T06:49:25;98023.25;;;3.50;69.01
43741;BME280;29352;48.708;9.290;2023-04-27T06:51:51;98014.13;;;4.48;65.76
43741;BME280;29352;48.708;9.290;2023-04-27T06:54:16;98013.81;;;4.43;66.02
43741;BME280;29352;48.708;9.290;2023-04-27T06:56:42;98019.00;;;5.28;64.32
43741;BME280;29352;48.708;9.290;2023-04-27T06:59:09;98012.94;;;5.42;63.67
43741;BME280;29352;48.708;9.290;2023-04-27T07:01:35;98015.19;;;4.93;63.73
43741;BME280;29352;48.708;9.290;2023-04-27T07:04:02;98017.97;;;5.52;62.75
43741;BME280;29352;48.708;9.290;2023-04-27T07:06:28;98018.88;;;7.13;59.33
43741;BME280;29352;48.708;9.290;2023-04-27T07:08:55;98017.72;;;7.22;58.48
43741;BME280;29352;48.708;9.290;2023-04-27T07:11:20;98010.09;;;7.40;57.87
43741;BME280;29352;48.708;9.290;2023-04-27T07:13:46;98025.69;;;7.22;57.65
43741;BME280;29352;48.708;9.290;2023-04-27T07:16:12;98021.16;;;7.44;57.50
43741;BME280;29352;48.708;9.290;2023-04-27T07:18:37;98014.47;;;8.85;54.05
43741;BME280;29352;48.708;9.290;2023-04-27T07:21:02;98007.44;;;8.64;55.27
43741;BME280;29352;48.708;9.290;2023-04-27T07:23:28;98002.81;;;8.93;54.73
43741;BME280;29352;48.708;9.290;2023-04-27T07:25:53;98006.44;;;9.91;53.14
43741;BME280;29352;48.708;9.290;2023-04-27T07:28:19;98005.06;;;9.56;53.17
43741;BME280;29352;48.708;9.290;2023-04-27T07:30:44;97997.94;;;10.21;51.45
43741;BME280;29352;48.708;9.290;2023-04-27T07:33:10;98002.78;;;11.07;50.28
43741;BME280;29352;48.708;9.290;2023-04-27T07:35:36;98006.09;;;10.26;51.21
43741;BME280;29352;48.708;9.290;2023-04-27T07:38:01;97999.56;;;10.15;51.10
43741;BME280;29352;48.708;9.290;2023-04-27T07:40:28;98000.97;;;12.31;48.57
43741;BME280;29352;48.708;9.290;2023-04-27T07:42:55;98000.47;;;10.03;52.27
43741;BME280;29352;48.708;9.290;2023-04-27T07:45:22;97988.44;;;12.62;47.20
43741;BME280;29352;48.708;9.290;2023-04-27T07:47:55;97990.03;;;11.78;49.03
43741;BME280;29352;48.708;9.290;2023-04-27T07:50:22;97996.53;;;11.45;48.53
43741;BME280;29352;48.708;9.290;2023-04-27T07:52:49;98009.72;;;10.83;50.10
43741;BME280;29352;48.708;9.290;2023-04-27T07:55:15;97986.16;;;14.42;44.73
43741;BME280;29352;48.708;9.290;2023-04-27T07:57:41;97994.53;;;14.34;44.55
43741;BME280;29352;48.708;9.290;2023-04-27T08:00:07;97985.13;;;13.67;44.97
43741;BME280;29352;48.708;9.290;2023-04-27T08:02:34;97990.75;;;12.59;47.26
43741;BME280;29352;48.708;9.290;2023-04-27T08:05:00;97988.66;;;13.02;46.04
43741;BME280;29352;48.708;9.290;2023-04-27T08:07:27;97999.06;;;11.33;46.85
43741;BME280;29352;48.708;9.290;2023-04-27T08:09:52;97983.47;;;13.43;44.92
43741;BME280;29352;48.708;9.290;2023-04-27T08:12:18;97990.44;;;13.44;45.01
43741;BME280;29352;48.708;9.290;2023-04-27T08:14:44;97986.44;;;14.57;44.21
43741;BME280;29352;48.708;9.290;2023-04-27T08:17:10;97980.91;;;13.83;43.88
43741;BME280;29352;48.708;9.290;2023-04-27T08:19:36;97982.50;;;13.96;43.70
43741;BME280;29352;48.708;9.290;2023-04-27T08:22:01;97979.47;;;15.07;43.36
43741;BME280;29352;48.708;9.290;2023-04-27T08:24:27;97975.19;;;13.80;44.04
43741;BME280;29352;48.708;9.290;2023-04-27T08:26:53;97976.81;;;13.22;45.07
43741;BME280;29352;48.708;9.290;2023-04-27T08:29:18;97971.88;;;12.65;46.60
43741;BME280;29352;48.708;9.290;2023-04-27T08:31:44;97973.91;;;12.40;45.82
43741;BME280;29352;48.708;9.290;2023-04-27T08:34:09;97966.66;;;13.00;44.35
43741;BME280;29352;48.708;9.290;2023-04-27T08:36:35;97967.28;;;12.42;45.44
43741;BME280;29352;48.708;9.290;2023-04-27T08:39:01;97962.63;;;12.79;45.22
43741;BME280;29352;48.708;9.290;2023-04-27T08:41:29;97961.44;;;13.53;43.47
43741;BME280;29352;48.708;9.290;2023-04-27T08:43:54;97958.28;;;14.19;43.57
43741;BME280;29352;48.708;9.290;2023-04-27T08:46:22;97948.56;;;14.30;42.25
43741;BME280;29352;48.708;9.290;2023-04-27T08:48:51;97947.00;;;13.18;44.15
43741;BME280;29352;48.708;9.290;2023-04-27T08:51:19;97953.50;;;14.22;42.58
43741;BME280;29352;48.708;9.290;2023-04-27T08:53:51;97955.00;;;11.86;45.58
43741;BME280;29352;48.708;9.290;2023-04-27T08:56:19;97948.53;;;12.84;43.34
43741;BME280;29352;48.708;9.290;2023-04-27T08:58:48;97949.78;;;13.00;44.72
43741;BME280;29352;48.708;9.290;2023-04-27T09:01:14;97946.84;;;13.84;43.10
43741;BME280;29352;48.708;9.290;2023-04-27T09:03:41;97955.13;;;11.91;45.66
43741;BME280;29352;48.708;9.290;2023-04-27T09:06:07;97955.59;;;12.97;44.93
43741;BME280;29352;48.708;9.290;2023-04-27T09:08:42;97949.78;;;13.00;43.72
43741;BME280;29352;48.708;9.290;2023-04-27T09:11:09;97953.16;;;13.19;41.75
43741;BME280;29352;48.708;9.290;2023-04-27T09:13:40;97951.16;;;12.30;42.83
43741;BME280;29352;48.708;9.290;2023-04-27T09:16:12;97950.91;;;12.92;43.27
43741;BME280;29352;48.708;9.290;2023-04-27T09:18:41;97933.81;;;13.52;41.85
43741;BME280;29352;48.708;9.290;2023-04-27T09:21:08;97949.38;;;14.31;41.26
43741;BME280;29352;48.708;9.290;2023-04-27T09:23:36;97942.78;;;13.22;44.24
43741;BME280;29352;48.708;9.290;2023-04-27T09:26:05;97947.09;;;13.70;40.56
43741;BME280;29352;48.708;9.290;2023-04-27T09:28:37;97957.44;;;11.69;41.61
43741;BME280;29352;48.708;9.290;2023-04-27T09:31:04;97950.84;;;13.69;40.29
43741;BME280;29352;48.708;9.290;2023-04-27T09:33:30;97947.66;;;13.61;42.42
43741;BME280;29352;48.708;9.290;2023-04-27T09:35:58;97943.59;;;13.58;41.09
43741;BME280;29352;48.708;9.290;2023-04-27T09:38:26;97945.63;;;14.43;40.04
43741;BME280;29352;48.708;9.290;2023-04-27T09:40:54;97949.09;;;14.73;41.55
43741;BME280;29352;48.708;9.290;2023-04-27T09:43:20;97939.75;;;13.42;42.42
43741;BME280;29352;48.708;9.290;2023-04-27T09:45:48;97944.38;;;14.63;40.97
43741;BME280;29352;48.708;9.290;2023-04-27T09:48:15;97943.97;;;14.88;40.78
43741;BME280;29352;48.708;9.290;2023-04-27T09:50:45;97946.72;;;12.96;41.17
43741;BME280;29352;48.708;9.290;2023-04-27T09:53:15;97941.72;;;13.59;42.05
43741;BME280;29352;48.708;9.290;2023-04-27T09:58:25;97926.03;;;15.44;40.06
43741;BME280;29352;48.708;9.290;2023-04-27T10:07:03;97932.38;;;14.25;40.98
43741;BME280;29352;48.708;9.290;2023-04-27T10:09:40;97922.69;;;15.76;40.23
43741;BME280;29352;48.708;9.290;2023-04-27T10:12:13;97929.66;;;15.33;39.85
43741;BME280;29352;48.708;9.290;2023-04-27T10:14:56;97928.31;;;14.51;40.64
43741;BME280;29352;48.708;9.290;2023-04-27T10:17:34;97934.84;;;14.89;41.76
43741;BME280;29352;48.708;9.290;2023-04-27T10:20:04;97926.38;;;14.97;39.76
43741;BME280;29352;48.708;9.290;2023-04-27T10:22:46;97919.19;;;16.46;38.27
43741;BME280;29352;48.708;9.290;2023-04-27T10:25:22;97924.84;;;15.74;38.49
43741;BME280;29352;48.708;9.290;2023-04-27T10:27:58;97926.97;;;16.16;40.11
43741;BME280;29352;48.708;9.290;2023-04-27T10:30:32;97927.25;;;16.41;38.55
43741;BME280;29352;48.708;9.290;2023-04-27T10:33:04;97923.53;;;14.87;39.22
43741;BME280;29352;48.708;9.290;2023-04-27T10:35:38;97920.19;;;15.30;39.86
43741;BME280;29352;48.708;9.290;2023-04-27T10:38:26;97924.47;;;13.66;40.68
43741;BME280;29352;48.708;9.290;2023-04-27T10:40:59;97928.47;;;14.33;40.85
43741;BME280;29352;48.708;9.290;2023-04-27T10:43:28;97919.88;;;14.93;41.74
43741;BME280;29352;48.708;9.290;2023-04-27T10:46:06;97913.91;;;12.59;41.70
43741;BME280;29352;48.708;9.290;2023-04-27T10:48:33;97911.66;;;14.83;41.03
43741;BME280;29352;48.708;9.290;2023-04-27T10:51:00;97902.78;;;13.80;41.38
43741;BME280;29352;48.708;9.290;2023-04-27T10:53:33;97903.59;;;13.57;41.38
43741;BME280;29352;48.708;9.290;2023-04-27T10:56:03;97901.44;;;12.95;42.02
43741;BME280;29352;48.708;9.290;2023-04-27T10:58:31;97898.69;;;14.34;41.84
43741;BME280;29352;48.708;9.290;2023-04-27T11:00:57;97897.31;;;14.03;42.68
43741;BME280;29352;48.708;9.290;2023-04-27T11:03:23;97900.84;;;15.50;41.32
43741;BME280;29352;48.708;9.290;2023-04-27T11:06:00;97889.09;;;15.78;41.35
43741;BME280;29352;48.708;9.290;2023-04-27T11:08:28;97897.00;;;14.74;41.48
43741;BME280;29352;48.708;9.290;2023-04-27T11:10:55;97885.44;;;15.24;42.36
43741;BME280;29352;48.708;9.290;2023-04-27T11:13:25;97900.25;;;14.30;45.27
43741;BME280;29352;48.708;9.290;2023-04-27T11:15:56;97901.13;;;14.48;45.97
43741;BME280;29352;48.708;9.290;2023-04-27T11:18:29;97902.69;;;14.03;47.07
43741;BME280;29352;48.708;9.290;2023-04-27T11:21:14;97901.78;;;14.55;45.63
43741;BME280;29352;48.708;9.290;2023-04-27T11:23:42;97893.34;;;14.34;44.71
43741;BME280;29352;48.708;9.290;2023-04-27T11:26:18;97902.41;;;14.45;45.55
43741;BME280;29352;48.708;9.290;2023-04-27T11:29:07;97899.44;;;14.01;44.04
43741;BME280;29352;48.708;9.290;2023-04-27T11:31:43;97895.69;;;14.02;42.60
43741;BME280;29352;48.708;9.290;2023-04-27T11:34:21;97895.78;;;13.55;43.52
43741;BME280;29352;48.708;9.290;2023-04-27T11:37:02;97891.69;;;14.16;46.16
43741;BME280;29352;48.708;9.290;2023-04-27T11:39:38;97894.38;;;13.76;43.61
43741;BME280;29352;48.708;9.290;2023-04-27T11:42:20;97888.25;;;13.29;41.82
43741;BME280;29352;48.708;9.290;2023-04-27T11:47:22;97895.91;;;12.06;42.66
43741;BME280;29352;48.708;9.290;2023-04-27T11:49:50;97898.28;;;12.14;43.27
43741;BME280;29352;48.708;9.290;2023-04-27T11:52:17;97904.19;;;12.35;45.17
43741;BME280;29352;48.708;9.290;2023-04-27T11:54:53;97905.75;;;11.57;45.04
43741;BME280;29352;48.708;9.290;2023-04-27T11:57:28;97904.56;;;11.34;44.50
43741;BME280;29352;48.708;9.290;2023-04-27T11:59:57;97898.53;;;13.32;42.24
43741;BME280;29352;48.708;9.290;2023-04-27T12:02:28;97903.31;;;13.18;42.01
43741;BME280;29352;48.708;9.290;2023-04-27T12:04:57;97900.91;;;12.74;42.58
43741;BME280;29352;48.708;9.290;2023-04-27T12:07:22;97899.00;;;12.93;42.17
43741;BME280;29352;48.708;9.290;2023-04-27T12:09:48;97893.06;;;12.19;43.43
43741;BME280;29352;48.708;9.290;2023-04-27T12:12:14;97895.78;;;11.27;45.51
43741;BME280;29352;48.708;9.290;2023-04-27T12:14:43;97881.94;;;12.04;44.22
43741;BME280;29352;48.708;9.290;2023-04-27T12:17:10;97877.22;;;12.48;44.13
43741;BME280;29352;48.708;9.290;2023-04-27T12:19:35;97870.78;;;13.26;43.92
43741;BME280;29352;48.708;9.290;2023-04-27T12:22:01;97875.22;;;13.32;41.89
43741;BME280;29352;48.708;9.290;2023-04-27T12:24:27;97875.28;;;12.67;42.20
43741;BME280;29352;48.708;9.290;2023-04-27T12:26:52;97868.41;;;12.59;43.28
43741;BME280;29352;48.708;9.290;2023-04-27T12:29:18;97874.72;;;12.23;43.28
43741;BME280;29352;48.708;9.290;2023-04-27T12:31:44;97878.22;;;12.89;44.67
43741;BME280;29352;48.708;9.290;2023-04-27T12:34:10;97873.69;;;13.13;45.05
43741;BME280;29352;48.708;9.290;2023-04-27T12:36:35;97868.00;;;12.44;43.68
43741;BME280;29352;48.708;9.290;2023-04-27T12:39:13;97872.53;;;12.31;44.40
43741;BME280;29352;48.708;9.290;2023-04-27T12:41:43;97872.81;;;12.42;43.31
43741;BME280;29352;48.708;9.290;2023-04-27T12:44:10;97867.91;;;12.39;44.64
43741;BME280;29352;48.708;9.290;2023-04-27T12:46:38;97871.75;;;11.64;44.56
43741;BME280;29352;48.708;9.290;2023-04-27T12:49:03;97878.28;;;11.50;44.95
43741;BME280;29352;48.708;9.290;2023-04-27T12:51:31;97863.72;;;12.13;44.83
43741;BME280;29352;48.708;9.290;2023-04-27T12:54:00;97866.66;;;11.44;44.17
43741;BME280;29352;48.708;9.290;2023-04-27T12:56:27;97864.25;;;12.03;45.08
43741;BME280;29352;48.708;9.290;2023-04-27T12:58:53;97867.09;;;12.50;44.27
43741;BME280;29352;48.708;9.290;2023-04-27T13:01:19;97849.47;;;13.31;42.44
43741;BME280;29352;48.708;9.290;2023-04-27T13:03:50;97856.84;;;13.64;42.50
43741;BME280;29352;48.708;9.290;2023-04-27T13:06:17;97851.94;;;13.61;42.08
43741;BME280;29352;48.708;9.290;2023-04-27T13:08:43;97850.66;;;13.00;43.42
43741;BME280;29352;48.708;9.290;2023-04-27T13:11:09;97853.41;;;13.52;42.25
43741;BME280;29352;48.708;9.290;2023-04-27T13:13:35;97849.53;;;13.60;42.84
43741;BME280;29352;48.708;9.290;2023-04-27T13:16:01;97843.47;;;13.93;41.03